Time;durP1;ratioP1;P1;durP2;ratioP2;P2;SDS_P1;SDS_P2;PMS_P1;PMS_P2;Temp;Humidity;BMP_temperature;BMP_pressure;BME280_temperature;BME280_humidity;BME280_pressure;Samples;Min_cycle;Max_cycle;Signal;HPM_P1;HPM_P2
2022/03/28 00:02:11;;;;;;;;;;;;;;;1.03;80.14;95169.69;6306615;28;19968;-62
2022/03/28 00:05:16;;;;;;;;;;;;;;;0.98;80.36;95184.63;6307272;28;19971;-61
2022/03/28 00:08:19;;;;;;;;;;;;;;;0.90;80.56;95166.91;6299500;28;20187;-61
2022/03/28 00:11:22;;;;;;;;;;;;;;;0.99;80.20;95160.41;6312027;28;21478;-71
2022/03/28 00:14:26;;;;;;;;;;;;;;;0.95;79.90;95171.84;6313076;28;21680;-64
2022/03/28 00:17:32;;;;;;;;;;;;;;;0.96;80.71;95171.75;6308394;28;19920;-65
2022/03/28 00:20:33;;;;;;;;;;;;;;;0.93;80.49;95160.75;6308090;28;19927;-68
2022/03/28 00:23:35;;;;;;;;;;;;;;;0.93;80.67;95165.91;6314342;28;19920;-64
2022/03/28 00:26:39;;;;;;;;;;;;;;;0.87;80.56;95170.50;6311257;28;19923;-64
2022/03/28 00:29:43;;;;;;;;;;;;;;;0.91;80.62;95147.88;6302292;28;20010;-65
2022/03/28 00:32:44;;;;;;;;;;;;;;;0.88;80.45;95154.06;6313347;28;20646;-66
2022/03/28 00:35:47;;;;;;;;;;;;;;;0.87;80.47;95147.19;6308849;28;19920;-63
2022/03/28 00:38:51;;;;;;;;;;;;;;;0.92;80.68;95138.34;6314001;28;19920;-62
2022/03/28 00:41:54;;;;;;;;;;;;;;;0.94;80.29;95133.94;6315864;28;20393;-67
2022/03/28 00:44:55;;;;;;;;;;;;;;;0.93;80.57;95158.16;6309370;28;19927;-62
2022/03/28 00:47:56;;;;;;;;;;;;;;;0.83;80.57;95135.34;6301004;28;19920;-61
2022/03/28 00:50:57;;;;;;;;;;;;;;;0.76;81.36;95123.63;6315458;28;19956;-61
2022/03/28 00:53:58;;;;;;;;;;;;;;;0.82;81.39;95141.47;6308153;28;19955;-61
2022/03/28 00:57:00;;;;;;;;;;;;;;;0.78;80.47;95116.63;6308803;28;19931;-62
2022/03/28 01:00:06;;;;;;;;;;;;;;;0.82;81.13;95136.28;6305037;28;19969;-61
2022/03/28 01:03:10;;;;;;;;;;;;;;;0.79;80.88;95115.75;6318633;28;19926;-61
2022/03/28 01:06:11;;;;;;;;;;;;;;;0.88;80.67;95115.22;6318821;28;19930;-63
2022/03/28 01:09:12;;;;;;;;;;;;;;;0.92;80.91;95122.81;6311569;28;19920;-62
2022/03/28 01:12:16;;;;;;;;;;;;;;;0.86;80.48;95109.28;6315704;28;19920;-63
2022/03/28 01:15:17;;;;;;;;;;;;;;;0.83;80.91;95109.47;6308860;28;19942;-62
2022/03/28 01:18:22;;;;;;;;;;;;;;;0.80;81.25;95109.63;6316002;28;19920;-61
2022/03/28 01:21:23;;;;;;;;;;;;;;;0.88;81.07;95104.88;6316393;28;19919;-60
2022/03/28 01:24:24;;;;;;;;;;;;;;;0.84;80.53;95111.13;6309562;28;19930;-61
2022/03/28 01:27:25;;;;;;;;;;;;;;;0.96;80.53;95098.41;6313756;28;20456;-61
2022/03/28 01:30:31;;;;;;;;;;;;;;;0.86;81.46;95088.56;6308939;28;19916;-61
2022/03/28 01:33:35;;;;;;;;;;;;;;;0.98;80.52;95106.94;6305105;28;19972;-61
2022/03/28 01:36:38;;;;;;;;;;;;;;;0.94;80.53;95110.63;6309637;28;19920;-61
2022/03/28 01:39:39;;;;;;;;;;;;;;;0.90;80.46;95094.41;6316036;28;20393;-61
2022/03/28 01:42:45;;;;;;;;;;;;;;;0.88;80.69;95102.28;6314695;28;19919;-62
2022/03/28 01:45:46;;;;;;;;;;;;;;;0.88;80.26;95104.88;6317997;28;19920;-59
2022/03/28 01:48:48;;;;;;;;;;;;;;;0.86;81.11;95093.75;6316596;28;19920;-62
2022/03/28 01:51:49;;;;;;;;;;;;;;;0.95;81.04;95114.88;6318735;28;19919;-61
2022/03/28 01:54:53;;;;;;;;;;;;;;;0.81;80.89;95090.56;6315435;28;19923;-62
2022/03/28 01:57:57;;;;;;;;;;;;;;;0.92;80.85;95082.22;6310414;28;19931;-62
2022/03/28 02:00:59;;;;;;;;;;;;;;;0.86;80.87;95078.22;6317292;28;19920;-62
2022/03/28 02:04:04;;;;;;;;;;;;;;;0.89;80.46;95077.22;6319261;28;19927;-65
2022/03/28 02:07:05;;;;;;;;;;;;;;;0.99;80.98;95067.16;6313391;28;19927;-64
2022/03/28 02:10:09;;;;;;;;;;;;;;;0.96;80.77;95077.69;6319237;28;19920;-64
2022/03/28 02:13:14;;;;;;;;;;;;;;;0.94;81.34;95092.50;6313076;28;19927;-63
2022/03/28 02:16:15;;;;;;;;;;;;;;;1.02;80.71;95092.88;6316416;28;19928;-65
2022/03/28 02:19:19;;;;;;;;;;;;;;;1.00;80.26;95084.41;6316154;28;19938;-65
2022/03/28 02:22:20;;;;;;;;;;;;;;;1.01;80.63;95076.53;6312001;28;19947;-64
2022/03/28 02:25:24;;;;;;;;;;;;;;;0.94;80.48;95061.44;6315007;28;19920;-64
2022/03/28 02:28:27;;;;;;;;;;;;;;;0.95;81.03;95083.81;6313401;28;20608;-63
2022/03/28 02:31:28;;;;;;;;;;;;;;;0.99;80.64;95069.75;6315760;28;20053;-64
2022/03/28 02:34:29;;;;;;;;;;;;;;;1.08;80.99;95071.84;6315634;28;19920;-63
2022/03/28 02:37:32;;;;;;;;;;;;;;;1.02;80.77;95085.13;6309578;28;19920;-63
2022/03/28 02:40:36;;;;;;;;;;;;;;;1.15;80.96;95080.09;6317274;28;19943;-63
2022/03/28 02:43:40;;;;;;;;;;;;;;;1.15;80.51;95087.88;6313229;28;19931;-64
2022/03/28 02:46:41;;;;;;;;;;;;;;;1.04;81.08;95072.94;6317740;28;20381;-64
2022/03/28 02:49:44;;;;;;;;;;;;;;;1.13;80.85;95069.81;6317003;28;20045;-63
2022/03/28 02:52:46;;;;;;;;;;;;;;;1.15;81.14;95065.38;6317088;28;19920;-63
2022/03/28 02:55:47;;;;;;;;;;;;;;;1.20;80.65;95065.97;6311502;28;20293;-63
2022/03/28 02:58:49;;;;;;;;;;;;;;;1.19;80.46;95071.22;6314785;28;20663;-62
2022/03/28 03:01:50;;;;;;;;;;;;;;;1.29;80.57;95060.25;6313970;28;19977;-62
2022/03/28 03:04:54;;;;;;;;;;;;;;;1.31;80.64;95073.13;6312085;28;20297;-62
2022/03/28 03:07:56;;;;;;;;;;;;;;;1.22;81.29;95066.72;6316775;28;19920;-63
2022/03/28 03:10:57;;;;;;;;;;;;;;;1.34;80.48;95063.41;6306202;28;19916;-62
2022/03/28 03:13:59;;;;;;;;;;;;;;;1.30;80.25;95061.94;6299164;28;20300;-62
2022/03/28 03:17:00;;;;;;;;;;;;;;;1.31;80.02;95058.41;6302033;28;19919;-63
2022/03/28 03:20:04;;;;;;;;;;;;;;;1.39;79.57;95049.34;6303791;28;19919;-63
2022/03/28 03:23:10;;;;;;;;;;;;;;;1.45;79.71;95033.47;6305150;28;19923;-63
2022/03/28 03:26:13;;;;;;;;;;;;;;;1.51;79.27;95028.75;6304466;28;19920;-63
2022/03/28 03:29:17;;;;;;;;;;;;;;;1.54;79.51;95038.09;6301582;28;19919;-63
2022/03/28 03:32:20;;;;;;;;;;;;;;;1.50;79.43;95032.28;6304363;28;20646;-62
2022/03/28 03:35:21;;;;;;;;;;;;;;;1.67;78.58;95052.03;6306652;28;19933;-62
2022/03/28 03:38:25;;;;;;;;;;;;;;;1.62;79.09;95048.88;6301373;28;20304;-62
2022/03/28 03:41:26;;;;;;;;;;;;;;;1.58;78.92;95042.19;6304663;28;20382;-63
2022/03/28 03:44:30;;;;;;;;;;;;;;;1.71;79.01;95053.50;6305411;28;20421;-62
2022/03/28 03:47:32;;;;;;;;;;;;;;;1.63;78.75;95034.97;6301044;28;20405;-62
2022/03/28 03:50:33;;;;;;;;;;;;;;;1.67;78.87;95039.06;6304170;28;19919;-63
2022/03/28 03:53:34;;;;;;;;;;;;;;;1.70;79.22;95028.50;6300644;28;19935;-62
2022/03/28 03:56:35;;;;;;;;;;;;;;;1.66;79.06;95036.53;6298824;28;19928;-64
2022/03/28 03:59:36;;;;;;;;;;;;;;;1.61;79.52;95042.00;6302617;28;20388;-63
2022/03/28 04:02:37;;;;;;;;;;;;;;;1.67;78.79;95043.38;6301713;28;19923;-62
2022/03/28 04:05:38;;;;;;;;;;;;;;;1.56;80.05;95025.91;6306211;28;19916;-63
2022/03/28 04:08:45;;;;;;;;;;;;;;;1.60;79.59;95035.16;6302156;28;20018;-62
2022/03/28 04:11:47;;;;;;;;;;;;;;;1.66;79.36;95042.56;6302037;28;19920;-62
2022/03/28 04:14:50;;;;;;;;;;;;;;;1.59;79.39;95028.31;6299385;28;19919;-61
2022/03/28 04:17:51;;;;;;;;;;;;;;;1.64;79.91;95038.38;6305399;28;20317;-63
2022/03/28 04:20:52;;;;;;;;;;;;;;;1.65;79.89;95030.53;6303043;28;20442;-62
2022/03/28 04:23:56;;;;;;;;;;;;;;;1.72;79.97;95042.19;6307399;28;19927;-63
2022/03/28 04:26:59;;;;;;;;;;;;;;;1.73;79.62;95030.91;6303567;28;19924;-63
2022/03/28 04:30:04;;;;;;;;;;;;;;;1.73;80.03;95030.91;6301642;28;19953;-68
2022/03/28 04:33:09;;;;;;;;;;;;;;;1.91;78.79;95051.47;6304243;28;19972;-64
2022/03/28 04:36:14;;;;;;;;;;;;;;;1.92;78.26;95027.22;6307404;28;19919;-63
2022/03/28 04:39:18;;;;;;;;;;;;;;;1.98;78.39;95042.41;6304878;28;19924;-62
2022/03/28 04:42:19;;;;;;;;;;;;;;;2.04;77.91;95031.66;6304715;28;20373;-62
2022/03/28 04:45:20;;;;;;;;;;;;;;;2.01;77.80;95039.66;6302061;28;19924;-63
2022/03/28 04:48:23;;;;;;;;;;;;;;;2.08;77.89;95037.50;6294902;28;19920;-64
2022/03/28 04:51:24;;;;;;;;;;;;;;;2.10;77.71;95062.44;6296001;28;19924;-66
2022/03/28 04:54:28;;;;;;;;;;;;;;;2.08;77.37;95037.50;6299326;28;19931;-67
2022/03/28 04:57:30;;;;;;;;;;;;;;;2.12;77.24;95050.16;6301435;28;20341;-67
2022/03/28 05:00:33;;;;;;;;;;;;;;;2.10;76.80;95041.66;6295043;28;19977;-65
2022/03/28 05:03:37;;;;;;;;;;;;;;;2.12;77.02;95034.59;6304764;28;20326;-66
2022/03/28 05:06:40;;;;;;;;;;;;;;;2.15;76.44;95044.81;6310621;28;20586;-66
2022/03/28 05:09:44;;;;;;;;;;;;;;;2.15;76.19;95029.25;6308931;28;19919;-66
2022/03/28 05:12:46;;;;;;;;;;;;;;;2.20;76.36;95040.16;6301330;28;19920;-68
2022/03/28 05:15:49;;;;;;;;;;;;;;;2.51;75.29;95040.88;6309261;28;19920;-67
2022/03/28 05:18:55;;;;;;;;;;;;;;;2.79;73.77;95039.16;6312661;28;19916;-65
2022/03/28 05:22:00;;;;;;;;;;;;;;;2.86;73.46;95040.41;6311903;28;20255;-72
2022/03/28 05:25:08;;;;;;;;;;;;;;;3.19;72.94;95016.63;6319890;28;19927;-71
2022/03/28 05:28:11;;;;;;;;;;;;;;;3.54;71.32;95026.47;6315621;28;20003;-68
2022/03/28 05:31:14;;;;;;;;;;;;;;;3.76;70.01;95031.88;6312756;28;19927;-67
2022/03/28 05:34:18;;;;;;;;;;;;;;;4.01;68.80;95036.25;6316381;28;19966;-75
2022/03/28 05:37:19;;;;;;;;;;;;;;;4.38;67.48;95035.50;6311927;28;19927;-65
2022/03/28 05:40:22;;;;;;;;;;;;;;;4.91;66.02;95057.75;6311122;28;19927;-62
2022/03/28 05:43:26;;;;;;;;;;;;;;;5.60;63.64;95031.03;6322848;28;19920;-68
2022/03/28 05:46:30;;;;;;;;;;;;;;;5.88;61.53;95047.22;6322499;28;19916;-62
2022/03/28 05:49:34;;;;;;;;;;;;;;;6.19;60.48;95043.97;6321932;28;19920;-64
2022/03/28 05:52:37;;;;;;;;;;;;;;;6.61;58.85;95046.81;6316651;28;19920;-63
2022/03/28 05:55:38;;;;;;;;;;;;;;;6.91;58.11;95027.06;6316515;28;20385;-64
2022/03/28 05:58:39;;;;;;;;;;;;;;;7.51;55.68;95036.13;6313002;28;19912;-63
2022/03/28 06:01:42;;;;;;;;;;;;;;;8.21;53.86;95049.53;6308146;28;19924;-63
2022/03/28 06:04:47;;;;;;;;;;;;;;;9.77;50.24;95046.38;6310889;28;19920;-63
2022/03/28 06:07:50;;;;;;;;;;;;;;;11.42;45.34;95055.47;6314328;28;19919;-64
2022/03/28 06:10:54;;;;;;;;;;;;;;;13.35;40.31;95054.47;6312731;28;20301;-63
2022/03/28 06:13:57;;;;;;;;;;;;;;;15.51;37.88;95051.22;6318346;28;19939;-63
2022/03/28 06:16:58;;;;;;;;;;;;;;;17.20;32.44;95053.59;6315055;28;19921;-63
2022/03/28 06:20:04;;;;;;;;;;;;;;;14.79;35.43;95067.25;6316705;28;20401;-64
2022/03/28 06:23:05;;;;;;;;;;;;;;;11.40;40.85;95132.00;6310991;28;19919;-63
2022/03/28 06:26:12;;;;;;;;;;;;;;;8.48;47.63;95096.22;6316830;28;20404;-62
2022/03/28 06:29:18;;;;;;;;;;;;;;;6.15;54.08;95081.72;6311670;28;19920;-62
2022/03/28 06:32:19;;;;;;;;;;;;;;;5.48;56.49;95082.34;6315237;28;19920;-62
2022/03/28 06:35:20;;;;;;;;;;;;;;;6.04;56.83;95073.88;6309292;28;19920;-63
2022/03/28 06:38:24;;;;;;;;;;;;;;;9.83;50.09;95072.09;6316369;28;19919;-64
2022/03/28 06:41:25;;;;;;;;;;;;;;;13.36;41.82;95095.78;6313438;28;19924;-63
2022/03/28 06:44:29;;;;;;;;;;;;;;;16.31;33.84;95095.97;6315774;28;20010;-62
2022/03/28 06:47:33;;;;;;;;;;;;;;;18.38;29.14;95111.00;6316103;28;20412;-63
2022/03/28 06:50:34;;;;;;;;;;;;;;;19.87;25.41;95116.13;6317990;28;19927;-62
2022/03/28 06:53:35;;;;;;;;;;;;;;;20.28;23.96;95096.50;6312103;28;19919;-62
2022/03/28 06:56:36;;;;;;;;;;;;;;;20.63;23.65;95105.19;6317429;28;19953;-63
2022/03/28 06:59:37;;;;;;;;;;;;;;;21.17;21.23;95122.03;6312684;28;19920;-64
2022/03/28 07:02:39;;;;;;;;;;;;;;;22.76;20.46;95125.91;6315208;28;20729;-63
2022/03/28 07:05:44;;;;;;;;;;;;;;;22.76;20.45;95150.06;6306764;28;19924;-63
2022/03/28 07:08:47;;;;;;;;;;;;;;;23.06;19.44;95136.00;6313922;28;19927;-64
2022/03/28 07:11:48;;;;;;;;;;;;;;;23.49;18.68;95152.09;6310661;28;20385;-64
2022/03/28 07:14:49;;;;;;;;;;;;;;;23.96;18.32;95152.47;6315888;28;20005;-63
2022/03/28 07:17:55;;;;;;;;;;;;;;;24.43;17.55;95146.53;6313887;28;19927;-63
2022/03/28 07:20:56;;;;;;;;;;;;;;;25.86;17.72;95159.94;6315232;28;19916;-63
2022/03/28 07:23:57;;;;;;;;;;;;;;;26.67;14.41;95168.03;6309985;28;19943;-63
2022/03/28 07:26:59;;;;;;;;;;;;;;;25.57;14.64;95167.09;6313808;28;19924;-64
2022/03/28 07:30:00;;;;;;;;;;;;;;;24.77;14.66;95168.34;6314563;28;19924;-63
2022/03/28 07:33:06;;;;;;;;;;;;;;;24.41;15.28;95164.72;6315213;28;20396;-65
2022/03/28 07:36:08;;;;;;;;;;;;;;;24.02;14.82;95204.47;6315714;28;19920;-63
2022/03/28 07:39:14;;;;;;;;;;;;;;;23.36;15.29;95194.38;6316703;28;20006;-64
2022/03/28 07:42:15;;;;;;;;;;;;;;;22.66;15.53;95173.81;6310534;28;19927;-63
2022/03/28 07:45:16;;;;;;;;;;;;;;;21.63;16.04;95185.38;6316095;28;21325;-63
2022/03/28 07:48:21;;;;;;;;;;;;;;;22.11;16.03;95195.72;6315523;28;19931;-63
2022/03/28 07:51:22;;;;;;;;;;;;;;;22.49;16.13;95220.94;6312046;28;20301;-64
2022/03/28 07:54:23;;;;;;;;;;;;;;;22.96;15.43;95216.97;6309059;28;19927;-63
2022/03/28 07:57:27;;;;;;;;;;;;;;;22.94;15.41;95215.53;6316022;28;20015;-63
2022/03/28 08:00:30;;;;;;;;;;;;;;;24.13;14.64;95233.28;6316937;28;20389;-63
2022/03/28 08:03:36;;;;;;;;;;;;;;;25.26;13.31;95234.50;6316493;28;20321;-64
2022/03/28 08:06:37;;;;;;;;;;;;;;;24.37;13.84;95238.78;6309133;28;19958;-63
2022/03/28 08:09:41;;;;;;;;;;;;;;;24.06;14.30;95237.91;6316945;28;20407;-64
2022/03/28 08:12:43;;;;;;;;;;;;;;;24.52;13.96;95231.19;6308903;28;19927;-63
2022/03/28 08:15:50;;;;;;;;;;;;;;;24.66;13.60;95229.16;6312444;28;19977;-63
2022/03/28 08:18:51;;;;;;;;;;;;;;;24.06;13.86;95232.53;6316669;28;19926;-63
2022/03/28 08:21:53;;;;;;;;;;;;;;;23.72;14.20;95228.53;6306677;28;20018;-63
2022/03/28 08:24:54;;;;;;;;;;;;;;;23.69;14.10;95235.16;6314389;28;19927;-63
2022/03/28 08:27:55;;;;;;;;;;;;;;;23.74;14.32;95240.69;6307056;28;19926;-64
2022/03/28 08:30:56;;;;;;;;;;;;;;;23.79;13.84;95242.75;6310485;28;19963;-65
2022/03/28 08:33:57;;;;;;;;;;;;;;;23.79;14.12;95248.09;6307636;28;19922;-63
2022/03/28 08:36:58;;;;;;;;;;;;;;;23.26;14.21;95248.53;6310710;28;19947;-66
2022/03/28 08:40:02;;;;;;;;;;;;;;;23.04;14.09;95258.78;6309413;28;19926;-63
2022/03/28 08:43:04;;;;;;;;;;;;;;;22.85;14.28;95241.78;6305457;28;20014;-63
2022/03/28 08:46:08;;;;;;;;;;;;;;;23.58;13.84;95268.09;6307529;28;20019;-64
2022/03/28 08:49:09;;;;;;;;;;;;;;;23.91;13.39;95256.25;6299602;28;19927;-64
2022/03/28 08:52:11;;;;;;;;;;;;;;;23.84;13.42;95263.56;6311287;28;19920;-63
2022/03/28 08:55:13;;;;;;;;;;;;;;;24.01;13.41;95251.19;6316307;28;19916;-64
2022/03/28 08:58:17;;;;;;;;;;;;;;;24.05;13.33;95263.13;6312252;28;20377;-63
2022/03/28 09:01:22;;;;;;;;;;;;;;;24.52;13.26;95258.09;6314897;28;19916;-69
2022/03/28 09:04:26;;;;;;;;;;;;;;;24.56;13.21;95251.19;6319740;28;19920;-62
2022/03/28 09:07:30;;;;;;;;;;;;;;;23.95;13.48;95241.34;6314187;28;19920;-65
2022/03/28 09:10:32;;;;;;;;;;;;;;;24.89;13.31;95263.38;6315773;28;20346;-62
2022/03/28 09:13:43;;;;;;;;;;;;;;;25.41;12.88;95266.34;6315727;28;19986;-64
2022/03/28 09:16:56;;;;;;;;;;;;;;;24.94;13.06;95271.59;6317129;28;19919;-62
2022/03/28 09:20:02;;;;;;;;;;;;;;;24.94;12.89;95263.53;6307835;28;19919;-63
2022/03/28 09:23:23;;;;;;;;;;;;;;;24.70;13.52;95270.66;6305008;28;19920;-62
2022/03/28 09:26:25;;;;;;;;;;;;;;;23.71;13.19;95267.19;6314543;28;19920;-62
2022/03/28 09:29:27;;;;;;;;;;;;;;;23.33;13.64;95260.06;6315436;28;19949;-62
2022/03/28 09:32:29;;;;;;;;;;;;;;;23.71;13.78;95267.19;6312627;28;19924;-63
2022/03/28 09:35:30;;;;;;;;;;;;;;;25.02;13.09;95263.19;6309020;28;20301;-62
2022/03/28 09:38:33;;;;;;;;;;;;;;;25.97;12.52;95265.03;6308466;28;20796;-62
2022/03/28 09:41:35;;;;;;;;;;;;;;;24.98;12.96;95262.00;6314867;28;19927;-62
2022/03/28 09:44:40;;;;;;;;;;;;;;;23.57;13.93;95266.44;6317432;28;20385;-62
2022/03/28 09:47:53;;;;;;;;;;;;;;;22.44;14.72;95274.34;6313697;28;19920;-62
2022/03/28 09:51:01;;;;;;;;;;;;;;;21.67;15.45;95282.13;6311251;28;20289;-63
2022/03/28 09:54:18;;;;;;;;;;;;;;;21.73;15.23;95286.66;6308519;28;19920;-62
2022/03/28 09:57:23;;;;;;;;;;;;;;;21.70;15.02;95292.44;6315979;28;19920;-62
2022/03/28 10:00:27;;;;;;;;;;;;;;;20.89;15.37;95301.41;6310454;28;19920;-61
2022/03/28 10:03:35;;;;;;;;;;;;;;;20.96;15.37;95299.56;6311840;28;19924;-62
2022/03/28 10:06:37;;;;;;;;;;;;;;;20.49;15.73;95306.56;6313878;28;19927;-63
2022/03/28 10:09:39;;;;;;;;;;;;;;;20.17;16.24;95303.53;6319785;28;19920;-61
2022/03/28 10:12:40;;;;;;;;;;;;;;;20.15;16.28;95307.41;6316969;28;19920;-62
2022/03/28 10:15:44;;;;;;;;;;;;;;;20.56;16.49;95312.78;6312690;28;20312;-62
2022/03/28 10:18:50;;;;;;;;;;;;;;;21.03;15.69;95308.44;6312193;28;19920;-62
2022/03/28 10:21:54;;;;;;;;;;;;;;;20.45;16.20;95309.84;6311267;28;19923;-61
2022/03/28 10:24:57;;;;;;;;;;;;;;;20.16;16.71;95306.41;6310602;28;19924;-61
2022/03/28 10:28:00;;;;;;;;;;;;;;;20.44;16.37;95308.19;6315197;28;19920;-62
2022/03/28 10:31:14;;;;;;;;;;;;;;;19.68;16.87;95299.13;6315778;28;19919;-62
2022/03/28 10:34:34;;;;;;;;;;;;;;;19.78;16.92;95297.97;6317284;28;19919;-62
2022/03/28 10:37:44;;;;;;;;;;;;;;;19.15;17.46;95303.19;6309775;28;19924;-62
2022/03/28 10:40:53;;;;;;;;;;;;;;;18.84;17.63;95291.81;6315078;28;19920;-62
2022/03/28 10:44:02;;;;;;;;;;;;;;;19.26;17.46;95316.81;6317379;28;19930;-61
2022/03/28 10:47:06;;;;;;;;;;;;;;;18.54;17.48;95295.53;6315954;28;19919;-62
2022/03/28 10:50:16;;;;;;;;;;;;;;;18.07;18.20;95307.44;6314228;28;19924;-63
2022/03/28 10:53:19;;;;;;;;;;;;;;;17.53;18.82;95310.31;6310454;28;20093;-63
2022/03/28 10:56:23;;;;;;;;;;;;;;;17.43;18.85;95313.22;6314967;28;19930;-62
2022/03/28 10:59:26;;;;;;;;;;;;;;;17.51;19.00;95316.63;6309755;28;19924;-62
2022/03/28 11:02:30;;;;;;;;;;;;;;;17.32;19.43;95326.94;6314042;28;20418;-62
2022/03/28 11:05:51;;;;;;;;;;;;;;;14.58;21.81;95321.91;6318276;28;19931;-63
2022/03/28 11:08:59;;;;;;;;;;;;;;;12.83;24.11;95323.81;6317390;28;19919;-63
2022/03/28 11:12:09;;;;;;;;;;;;;;;12.23;24.86;95318.25;6317396;28;19920;-63
2022/03/28 11:15:15;;;;;;;;;;;;;;;12.79;24.95;95318.03;6319249;28;19920;-61
2022/03/28 11:18:27;;;;;;;;;;;;;;;12.81;24.96;95323.13;6315556;28;20293;-61
2022/03/28 11:21:33;;;;;;;;;;;;;;;12.91;24.99;95328.31;6318625;28;19920;-62
2022/03/28 11:24:44;;;;;;;;;;;;;;;11.92;26.86;95321.19;6319860;28;19920;-62
2022/03/28 11:27:48;;;;;;;;;;;;;;;11.54;28.02;95322.13;6319577;28;19920;-62
2022/03/28 11:30:56;;;;;;;;;;;;;;;11.16;28.57;95324.72;6318984;28;19927;-62
2022/03/28 11:34:09;;;;;;;;;;;;;;;11.28;28.55;95322.75;6298209;28;19943;-61
2022/03/28 11:37:14;;;;;;;;;;;;;;;10.92;29.51;95322.50;6320252;28;19920;-62
2022/03/28 11:40:15;;;;;;;;;;;;;;;10.84;29.75;95326.81;6320458;28;19920;-62
2022/03/28 11:43:16;;;;;;;;;;;;;;;10.02;30.33;95327.91;6320464;28;19920;-62
2022/03/28 11:46:23;;;;;;;;;;;;;;;8.96;31.99;95329.03;6305615;28;19959;-62
2022/03/28 11:49:29;;;;;;;;;;;;;;;8.80;32.67;95334.72;6317664;28;19923;-62
2022/03/28 11:52:32;;;;;;;;;;;;;;;9.25;32.12;95331.84;6307228;28;20394;-60
2022/03/28 11:55:33;;;;;;;;;;;;;;;9.25;31.79;95339.72;6308000;28;20257;-61
2022/03/28 11:58:37;;;;;;;;;;;;;;;9.24;31.70;95338.06;6308901;28;19920;-62
2022/03/28 12:01:38;;;;;;;;;;;;;;;8.94;32.01;95358.00;6314259;28;19927;-63
2022/03/28 12:04:45;;;;;;;;;;;;;;;8.30;33.13;95350.13;6312847;28;19920;-62
2022/03/28 12:07:49;;;;;;;;;;;;;;;7.74;34.51;95329.25;6319867;28;19926;-61
2022/03/28 12:10:53;;;;;;;;;;;;;;;8.28;33.67;95336.31;6311806;28;19920;-68
2022/03/28 12:13:54;;;;;;;;;;;;;;;9.19;32.51;95338.44;6306649;28;19920;-67
2022/03/28 12:16:56;;;;;;;;;;;;;;;9.32;32.99;95356.63;6305313;28;19924;-69
2022/03/28 12:20:01;;;;;;;;;;;;;;;9.43;32.83;95348.69;6302761;28;20057;-69
2022/03/28 12:23:05;;;;;;;;;;;;;;;8.59;34.10;95324.22;6304940;28;19946;-68
2022/03/28 12:26:09;;;;;;;;;;;;;;;8.05;35.33;95323.25;6299694;28;19981;-66
2022/03/28 12:29:11;;;;;;;;;;;;;;;7.64;36.81;95335.22;6307528;28;20460;-66
2022/03/28 12:32:17;;;;;;;;;;;;;;;6.86;37.49;95333.31;6302355;28;19920;-67
2022/03/28 12:35:21;;;;;;;;;;;;;;;6.33;39.30;95334.66;6294662;28;19968;-66
2022/03/28 12:38:29;;;;;;;;;;;;;;;6.14;41.04;95338.56;6314716;28;20439;-63
2022/03/28 12:41:30;;;;;;;;;;;;;;;6.05;41.57;95344.47;6313141;28;19920;-64
2022/03/28 12:44:33;;;;;;;;;;;;;;;5.93;42.21;95337.47;6312320;28;20085;-65
2022/03/28 12:47:37;;;;;;;;;;;;;;;6.15;42.30;95344.66;6303076;28;19920;-65
2022/03/28 12:50:51;;;;;;;;;;;;;;;6.13;42.63;95344.75;6316998;28;20385;-64
2022/03/28 12:54:05;;;;;;;;;;;;;;;6.14;42.89;95349.03;6316463;28;19920;-65
2022/03/28 12:57:06;;;;;;;;;;;;;;;5.89;43.61;95346.47;6296977;28;19916;-66
2022/03/28 13:00:09;;;;;;;;;;;;;;;5.43;44.78;95355.72;6293989;28;19921;-64
2022/03/28 13:03:26;;;;;;;;;;;;;;;4.97;46.35;95365.84;6312187;28;20018;-68
2022/03/28 13:06:32;;;;;;;;;;;;;;;4.31;48.18;95357.97;6305495;28;19919;-63
2022/03/28 13:09:38;;;;;;;;;;;;;;;4.18;48.63;95359.66;6306351;28;19920;-65
2022/03/28 13:12:42;;;;;;;;;;;;;;;4.01;49.20;95365.94;6310678;28;20328;-64
2022/03/28 13:15:44;;;;;;;;;;;;;;;3.75;49.70;95362.38;6314086;28;20023;-63
2022/03/28 13:18:58;;;;;;;;;;;;;;;3.65;50.21;95372.50;6314543;28;19919;-64
2022/03/28 13:21:59;;;;;;;;;;;;;;;3.34;50.88;95379.59;6315034;28;19920;-64
2022/03/28 13:25:09;;;;;;;;;;;;;;;2.95;51.85;95367.19;6311019;28;19920;-64
2022/03/28 13:28:14;;;;;;;;;;;;;;;2.85;52.01;95364.28;6316646;28;19920;-64
2022/03/28 13:31:19;;;;;;;;;;;;;;;2.75;52.64;95365.75;6310559;28;19924;-63
2022/03/28 13:34:21;;;;;;;;;;;;;;;2.66;53.31;95382.72;6310720;28;20278;-63
2022/03/28 13:37:25;;;;;;;;;;;;;;;2.53;54.78;95370.53;6314499;28;19920;-64
2022/03/28 13:40:27;;;;;;;;;;;;;;;2.28;56.33;95361.50;6315549;28;20412;-64
2022/03/28 13:43:28;;;;;;;;;;;;;;;2.09;57.31;95366.06;6312884;28;19930;-64
2022/03/28 13:46:30;;;;;;;;;;;;;;;1.85;58.17;95373.44;6314774;28;19927;-64
2022/03/28 13:49:33;;;;;;;;;;;;;;;1.69;59.14;95363.88;6317008;28;19924;-64
2022/03/28 13:52:34;;;;;;;;;;;;;;;1.57;60.38;95386.13;6318322;28;19920;-64
2022/03/28 13:55:38;;;;;;;;;;;;;;;1.49;61.00;95371.91;6316849;28;20389;-64
2022/03/28 13:58:40;;;;;;;;;;;;;;;1.32;62.00;95377.97;6317176;28;19919;-64
2022/03/28 14:02:02;;;;;;;;;;;;;;;1.08;62.87;95374.91;6309673;28;19920;-64
2022/03/28 14:05:07;;;;;;;;;;;;;;;1.21;63.42;95378.53;6317993;28;19920;-64
2022/03/28 14:08:09;;;;;;;;;;;;;;;1.02;63.71;95380.38;6314354;28;20016;-65
2022/03/28 14:11:10;;;;;;;;;;;;;;;0.87;64.13;95379.41;6309560;28;19920;-64
2022/03/28 14:14:12;;;;;;;;;;;;;;;0.82;65.36;95391.75;6311905;28;19920;-65
2022/03/28 14:17:13;;;;;;;;;;;;;;;0.73;66.06;95380.09;6316387;28;20869;-64
2022/03/28 14:20:18;;;;;;;;;;;;;;;0.52;66.05;95383.78;6316207;28;19919;-65
2022/03/28 14:23:23;;;;;;;;;;;;;;;0.48;66.69;95388.25;6317221;28;19982;-64
2022/03/28 14:26:27;;;;;;;;;;;;;;;0.54;66.65;95397.44;6318625;28;20040;-64
2022/03/28 14:29:30;;;;;;;;;;;;;;;0.57;66.40;95386.97;6317024;28;19927;-64
2022/03/28 14:32:31;;;;;;;;;;;;;;;0.25;67.81;95384.19;6312417;28;19920;-65
2022/03/28 14:35:38;;;;;;;;;;;;;;;0.35;67.99;95380.25;6316944;28;19927;-64
2022/03/28 14:38:40;;;;;;;;;;;;;;;0.15;68.33;95386.38;6315538;28;19924;-64
2022/03/28 14:41:41;;;;;;;;;;;;;;;0.17;68.30;95389.75;6311942;28;20278;-65
2022/03/28 14:44:44;;;;;;;;;;;;;;;-0.03;68.47;95382.94;6315190;28;20006;-65
2022/03/28 14:47:48;;;;;;;;;;;;;;;-0.09;68.47;95390.13;6312313;28;19926;-65
2022/03/28 14:50:50;;;;;;;;;;;;;;;-0.28;69.56;95400.50;6310843;28;19915;-65
2022/03/28 14:53:53;;;;;;;;;;;;;;;-0.38;69.66;95402.63;6319245;28;19965;-65
2022/03/28 14:56:57;;;;;;;;;;;;;;;-0.25;68.98;95402.94;6320069;28;19919;-64
2022/03/28 15:00:01;;;;;;;;;;;;;;;-0.30;69.78;95410.06;6306092;28;19920;-64
2022/03/28 15:03:04;;;;;;;;;;;;;;;-0.07;68.61;95401.22;6319945;28;19927;-65
2022/03/28 15:06:08;;;;;;;;;;;;;;;-0.24;68.72;95407.19;6316341;28;20301;-65
2022/03/28 15:09:09;;;;;;;;;;;;;;;-0.02;68.61;95413.03;6310318;28;19924;-65
2022/03/28 15:12:11;;;;;;;;;;;;;;;0.15;68.59;95416.59;6311324;28;19924;-64
2022/03/28 15:15:12;;;;;;;;;;;;;;;-0.04;68.23;95420.03;6315644;28;19924;-64
2022/03/28 15:18:18;;;;;;;;;;;;;;;-0.14;68.78;95416.22;6310793;28;19920;-65
2022/03/28 15:21:20;;;;;;;;;;;;;;;-0.19;68.72;95425.09;6305689;28;19920;-65
2022/03/28 15:24:21;;;;;;;;;;;;;;;-0.15;69.06;95418.84;6313530;28;19931;-64
2022/03/28 15:27:22;;;;;;;;;;;;;;;-0.38;69.65;95438.00;6316316;28;19942;-64
2022/03/28 15:30:24;;;;;;;;;;;;;;;-0.56;70.65;95434.47;6314020;28;19926;-64
2022/03/28 15:33:25;;;;;;;;;;;;;;;-0.54;69.92;95443.84;6315667;28;19927;-65
2022/03/28 15:36:27;;;;;;;;;;;;;;;-0.58;70.72;95446.63;6311944;28;19920;-65
2022/03/28 15:39:30;;;;;;;;;;;;;;;-0.66;71.39;95444.38;6316782;28;20015;-64
2022/03/28 15:42:33;;;;;;;;;;;;;;;-0.66;71.67;95444.38;6315807;28;19928;-64
2022/03/28 15:45:34;;;;;;;;;;;;;;;-0.50;70.93;95445.38;6310354;28;19920;-65
2022/03/28 15:48:36;;;;;;;;;;;;;;;-0.61;70.33;95452.75;6316540;28;19919;-66
2022/03/28 15:51:38;;;;;;;;;;;;;;;-0.77;71.07;95451.75;6315162;28;20611;-65
2022/03/28 15:54:41;;;;;;;;;;;;;;;-0.70;71.55;95448.84;6314986;28;19931;-63
2022/03/28 15:57:42;;;;;;;;;;;;;;;-0.78;71.18;95450.06;6307771;28;19924;-64
2022/03/28 16:00:43;;;;;;;;;;;;;;;-0.78;71.25;95455.25;6313367;28;19920;-65
2022/03/28 16:03:47;;;;;;;;;;;;;;;-0.78;72.00;95461.25;6312729;28;19920;-64